sensor_id;sensor_type;location;lat;lon;timestamp;pressure;altitude;pressure_sealevel;temperature
54746;BMP180;40640;48.130;11.356;2022-08-25T00:00:36;95866.00;;;18.30
54746;BMP180;40640;48.130;11.356;2022-08-25T00:04:40;95872.00;;;18.30
54746;BMP180;40640;48.130;11.356;2022-08-25T00:08:44;95869.00;;;18.20
54746;BMP180;40640;48.130;11.356;2022-08-25T00:12:47;95862.00;;;18.20
54746;BMP180;40640;48.130;11.356;2022-08-25T00:16:51;95855.00;;;18.10
54746;BMP180;40640;48.130;11.356;2022-08-25T00:20:56;95856.00;;;18.10
54746;BMP180;40640;48.130;11.356;2022-08-25T00:24:59;95861.00;;;18.00
54746;BMP180;40640;48.130;11.356;2022-08-25T00:29:02;95861.00;;;18.00
54746;BMP180;40640;48.130;11.356;2022-08-25T00:33:07;95858.00;;;17.90
54746;BMP180;40640;48.130;11.356;2022-08-25T00:37:10;95851.00;;;17.90
54746;BMP180;40640;48.130;11.356;2022-08-25T00:41:16;95851.00;;;17.90
54746;BMP180;40640;48.130;11.356;2022-08-25T00:45:21;95847.00;;;17.90
54746;BMP180;40640;48.130;11.356;2022-08-25T00:49:28;95852.00;;;17.90
54746;BMP180;40640;48.130;11.356;2022-08-25T00:53:31;95838.00;;;18.00
54746;BMP180;40640;48.130;11.356;2022-08-25T00:57:37;95844.00;;;17.80
54746;BMP180;40640;48.130;11.356;2022-08-25T01:01:41;95838.00;;;17.70
54746;BMP180;40640;48.130;11.356;2022-08-25T01:05:46;95833.00;;;17.20
54746;BMP180;40640;48.130;11.356;2022-08-25T01:09:51;95837.00;;;17.00
54746;BMP180;40640;48.130;11.356;2022-08-25T01:13:55;95832.00;;;17.10
54746;BMP180;40640;48.130;11.356;2022-08-25T01:17:59;95827.00;;;17.10
54746;BMP180;40640;48.130;11.356;2022-08-25T01:22:03;95831.00;;;17.30
54746;BMP180;40640;48.130;11.356;2022-08-25T01:26:09;95834.00;;;17.40
54746;BMP180;40640;48.130;11.356;2022-08-25T01:30:13;95830.00;;;17.40
54746;BMP180;40640;48.130;11.356;2022-08-25T01:34:17;95822.00;;;17.40
54746;BMP180;40640;48.130;11.356;2022-08-25T01:38:22;95824.00;;;17.40
54746;BMP180;40640;48.130;11.356;2022-08-25T01:42:33;95826.00;;;17.40
54746;BMP180;40640;48.130;11.356;2022-08-25T01:46:39;95823.00;;;17.40
54746;BMP180;40640;48.130;11.356;2022-08-25T01:50:42;95812.00;;;17.30
54746;BMP180;40640;48.130;11.356;2022-08-25T01:54:47;95814.00;;;17.10
54746;BMP180;40640;48.130;11.356;2022-08-25T01:58:49;95825.00;;;17.00
54746;BMP180;40640;48.130;11.356;2022-08-25T02:02:52;95809.00;;;16.90
54746;BMP180;40640;48.130;11.356;2022-08-25T02:06:56;95808.00;;;17.00
54746;BMP180;40640;48.130;11.356;2022-08-25T02:11:01;95813.00;;;17.00
54746;BMP180;40640;48.130;11.356;2022-08-25T02:15:05;95803.00;;;16.60
54746;BMP180;40640;48.130;11.356;2022-08-25T02:19:10;95807.00;;;16.30
54746;BMP180;40640;48.130;11.356;2022-08-25T02:23:14;95815.00;;;16.30
54746;BMP180;40640;48.130;11.356;2022-08-25T02:27:18;95813.00;;;16.20
54746;BMP180;40640;48.130;11.356;2022-08-25T02:31:22;95801.00;;;16.40
54746;BMP180;40640;48.130;11.356;2022-08-25T02:35:25;95804.00;;;16.50
54746;BMP180;40640;48.130;11.356;2022-08-25T02:39:28;95811.00;;;16.50
54746;BMP180;40640;48.130;11.356;2022-08-25T02:43:32;95804.00;;;16.50
54746;BMP180;40640;48.130;11.356;2022-08-25T02:47:35;95800.00;;;16.30
54746;BMP180;40640;48.130;11.356;2022-08-25T02:51:38;95791.00;;;16.40
54746;BMP180;40640;48.130;11.356;2022-08-25T02:55:41;95788.00;;;16.50
54746;BMP180;40640;48.130;11.356;2022-08-25T02:59:45;95783.00;;;16.50
54746;BMP180;40640;48.130;11.356;2022-08-25T03:03:49;95787.00;;;16.50
54746;BMP180;40640;48.130;11.356;2022-08-25T03:07:52;95793.00;;;16.50
54746;BMP180;40640;48.130;11.356;2022-08-25T03:11:55;95786.00;;;16.40
54746;BMP180;40640;48.130;11.356;2022-08-25T03:16:00;95783.00;;;16.30
54746;BMP180;40640;48.130;11.356;2022-08-25T03:20:05;95790.00;;;16.30
54746;BMP180;40640;48.130;11.356;2022-08-25T03:24:08;95785.00;;;16.20
54746;BMP180;40640;48.130;11.356;2022-08-25T03:28:11;95781.00;;;16.10
54746;BMP180;40640;48.130;11.356;2022-08-25T03:32:14;95781.00;;;16.10
54746;BMP180;40640;48.130;11.356;2022-08-25T03:36:17;95777.00;;;16.20
54746;BMP180;40640;48.130;11.356;2022-08-25T03:40:19;95768.00;;;16.00
54746;BMP180;40640;48.130;11.356;2022-08-25T03:44:23;95769.00;;;15.90
54746;BMP180;40640;48.130;11.356;2022-08-25T03:48:28;95765.00;;;16.00
54746;BMP180;40640;48.130;11.356;2022-08-25T03:52:30;95768.00;;;15.70
54746;BMP180;40640;48.130;11.356;2022-08-25T03:56:33;95767.00;;;15.50
54746;BMP180;40640;48.130;11.356;2022-08-25T04:00:36;95775.00;;;15.50
54746;BMP180;40640;48.130;11.356;2022-08-25T04:04:40;95773.00;;;15.30
54746;BMP180;40640;48.130;11.356;2022-08-25T04:08:44;95775.00;;;15.10
54746;BMP180;40640;48.130;11.356;2022-08-25T04:12:46;95772.00;;;15.10
54746;BMP180;40640;48.130;11.356;2022-08-25T04:16:50;95775.00;;;15.10
54746;BMP180;40640;48.130;11.356;2022-08-25T04:21:02;95774.00;;;15.20
54746;BMP180;40640;48.130;11.356;2022-08-25T04:25:06;95768.00;;;15.30
54746;BMP180;40640;48.130;11.356;2022-08-25T04:29:11;95776.00;;;15.20
54746;BMP180;40640;48.130;11.356;2022-08-25T04:33:14;95771.00;;;15.40
54746;BMP180;40640;48.130;11.356;2022-08-25T04:37:19;95766.00;;;15.40
54746;BMP180;40640;48.130;11.356;2022-08-25T04:41:22;95771.00;;;15.50
54746;BMP180;40640;48.130;11.356;2022-08-25T04:45:25;95769.00;;;15.40
54746;BMP180;40640;48.130;11.356;2022-08-25T04:49:28;95756.00;;;15.40
54746;BMP180;40640;48.130;11.356;2022-08-25T04:53:33;95762.00;;;15.40
54746;BMP180;40640;48.130;11.356;2022-08-25T04:57:37;95761.00;;;15.50
54746;BMP180;40640;48.130;11.356;2022-08-25T05:01:40;95759.00;;;15.60
54746;BMP180;40640;48.130;11.356;2022-08-25T05:05:44;95759.00;;;15.80
54746;BMP180;40640;48.130;11.356;2022-08-25T05:09:48;95752.00;;;16.00
54746;BMP180;40640;48.130;11.356;2022-08-25T05:13:52;95765.00;;;16.10
54746;BMP180;40640;48.130;11.356;2022-08-25T05:17:56;95761.00;;;16.30
54746;BMP180;40640;48.130;11.356;2022-08-25T05:21:59;95757.00;;;16.40
54746;BMP180;40640;48.130;11.356;2022-08-25T05:26:05;95763.00;;;16.50
54746;BMP180;40640;48.130;11.356;2022-08-25T05:30:10;95760.00;;;16.60
54746;BMP180;40640;48.130;11.356;2022-08-25T05:34:13;95756.00;;;16.70
54746;BMP180;40640;48.130;11.356;2022-08-25T05:38:16;95763.00;;;16.80
54746;BMP180;40640;48.130;11.356;2022-08-25T05:42:20;95767.00;;;17.10
54746;BMP180;40640;48.130;11.356;2022-08-25T05:46:26;95760.00;;;18.50
54746;BMP180;40640;48.130;11.356;2022-08-25T05:50:32;95752.00;;;21.20
54746;BMP180;40640;48.130;11.356;2022-08-25T05:54:35;95754.00;;;23.60
54746;BMP180;40640;48.130;11.356;2022-08-25T05:58:40;95747.00;;;25.60
54746;BMP180;40640;48.130;11.356;2022-08-25T06:02:43;95735.00;;;26.80
54746;BMP180;40640;48.130;11.356;2022-08-25T06:06:46;95737.00;;;27.50
54746;BMP180;40640;48.130;11.356;2022-08-25T06:10:53;95734.00;;;25.20
54746;BMP180;40640;48.130;11.356;2022-08-25T06:14:59;95742.00;;;24.50
54746;BMP180;40640;48.130;11.356;2022-08-25T06:19:02;95740.00;;;24.50
54746;BMP180;40640;48.130;11.356;2022-08-25T06:23:05;95744.00;;;24.70
54746;BMP180;40640;48.130;11.356;2022-08-25T06:27:08;95737.00;;;25.20
54746;BMP180;40640;48.130;11.356;2022-08-25T06:31:12;95742.00;;;24.90
54746;BMP180;40640;48.130;11.356;2022-08-25T06:35:16;95749.00;;;24.40
54746;BMP180;40640;48.130;11.356;2022-08-25T06:39:20;95753.00;;;25.00
54746;BMP180;40640;48.130;11.356;2022-08-25T06:43:23;95753.00;;;24.60
54746;BMP180;40640;48.130;11.356;2022-08-25T06:47:27;95749.00;;;24.10
54746;BMP180;40640;48.130;11.356;2022-08-25T06:51:30;95750.00;;;23.10
54746;BMP180;40640;48.130;11.356;2022-08-25T06:55:33;95754.00;;;22.60
54746;BMP180;40640;48.130;11.356;2022-08-25T06:59:38;95757.00;;;23.20
54746;BMP180;40640;48.130;11.356;2022-08-25T07:03:43;95752.00;;;22.80
54746;BMP180;40640;48.130;11.356;2022-08-25T07:07:48;95756.00;;;23.40
54746;BMP180;40640;48.130;11.356;2022-08-25T07:11:51;95761.00;;;23.30
54746;BMP180;40640;48.130;11.356;2022-08-25T07:15:54;95764.00;;;23.40
54746;BMP180;40640;48.130;11.356;2022-08-25T07:20:00;95761.00;;;22.80
54746;BMP180;40640;48.130;11.356;2022-08-25T07:24:04;95760.00;;;23.10
54746;BMP180;40640;48.130;11.356;2022-08-25T07:28:07;95750.00;;;23.20
54746;BMP180;40640;48.130;11.356;2022-08-25T07:32:10;95747.00;;;23.40
54746;BMP180;40640;48.130;11.356;2022-08-25T07:36:15;95740.00;;;22.70
54746;BMP180;40640;48.130;11.356;2022-08-25T07:40:22;95750.00;;;22.20
54746;BMP180;40640;48.130;11.356;2022-08-25T07:44:26;95753.00;;;22.50
54746;BMP180;40640;48.130;11.356;2022-08-25T07:48:29;95745.00;;;22.80
54746;BMP180;40640;48.130;11.356;2022-08-25T07:52:33;95753.00;;;23.70
54746;BMP180;40640;48.130;11.356;2022-08-25T07:56:39;95747.00;;;24.80
54746;BMP180;40640;48.130;11.356;2022-08-25T08:00:46;95743.00;;;24.50
54746;BMP180;40640;48.130;11.356;2022-08-25T08:04:52;95750.00;;;24.90
54746;BMP180;40640;48.130;11.356;2022-08-25T08:08:56;95759.00;;;25.50
54746;BMP180;40640;48.130;11.356;2022-08-25T08:13:00;95747.00;;;25.70
54746;BMP180;40640;48.130;11.356;2022-08-25T08:17:05;95748.00;;;28.50
54746;BMP180;40640;48.130;11.356;2022-08-25T08:21:10;95743.00;;;29.60
54746;BMP180;40640;48.130;11.356;2022-08-25T08:25:21;95737.00;;;28.80
54746;BMP180;40640;48.130;11.356;2022-08-25T08:29:28;95737.00;;;31.50
54746;BMP180;40640;48.130;11.356;2022-08-25T08:33:33;95724.00;;;35.30
54746;BMP180;40640;48.130;11.356;2022-08-25T08:37:41;95705.00;;;38.20
54746;BMP180;40640;48.130;11.356;2022-08-25T08:41:58;95707.00;;;40.00
54746;BMP180;40640;48.130;11.356;2022-08-25T08:46:23;95702.00;;;41.30
54746;BMP180;40640;48.130;11.356;2022-08-25T08:50:29;95690.00;;;40.20
54746;BMP180;40640;48.130;11.356;2022-08-25T08:54:36;95691.00;;;38.30
54746;BMP180;40640;48.130;11.356;2022-08-25T08:58:47;95691.00;;;37.00
54746;BMP180;40640;48.130;11.356;2022-08-25T09:02:56;95688.00;;;39.00
54746;BMP180;40640;48.130;11.356;2022-08-25T09:07:10;95701.00;;;34.30
54746;BMP180;40640;48.130;11.356;2022-08-25T09:11:22;95708.00;;;37.00
54746;BMP180;40640;48.130;11.356;2022-08-25T09:15:47;95708.00;;;34.80
54746;BMP180;40640;48.130;11.356;2022-08-25T09:20:34;95718.00;;;35.10
54746;BMP180;40640;48.130;11.356;2022-08-25T09:24:48;95706.00;;;34.90
54746;BMP180;40640;48.130;11.356;2022-08-25T09:29:00;95709.00;;;35.10
54746;BMP180;40640;48.130;11.356;2022-08-25T09:33:19;95714.00;;;33.40
54746;BMP180;40640;48.130;11.356;2022-08-25T09:37:22;95709.00;;;33.70
54746;BMP180;40640;48.130;11.356;2022-08-25T09:41:42;95705.00;;;32.80
54746;BMP180;40640;48.130;11.356;2022-08-25T09:45:47;95708.00;;;33.20
54746;BMP180;40640;48.130;11.356;2022-08-25T09:49:56;95697.00;;;32.70
54746;BMP180;40640;48.130;11.356;2022-08-25T09:54:03;95697.00;;;30.00
54746;BMP180;40640;48.130;11.356;2022-08-25T09:58:16;95690.00;;;30.90
54746;BMP180;40640;48.130;11.356;2022-08-25T10:02:22;95692.00;;;32.40
54746;BMP180;40640;48.130;11.356;2022-08-25T10:06:30;95689.00;;;31.40
54746;BMP180;40640;48.130;11.356;2022-08-25T10:10:39;95676.00;;;32.50
54746;BMP180;40640;48.130;11.356;2022-08-25T10:14:46;95693.00;;;29.60
54746;BMP180;40640;48.130;11.356;2022-08-25T10:19:06;95679.00;;;32.10
54746;BMP180;40640;48.130;11.356;2022-08-25T10:23:13;95683.00;;;31.90
54746;BMP180;40640;48.130;11.356;2022-08-25T10:27:21;95672.00;;;30.60
54746;BMP180;40640;48.130;11.356;2022-08-25T10:31:33;95677.00;;;31.80
54746;BMP180;40640;48.130;11.356;2022-08-25T10:35:54;95669.00;;;33.00
54746;BMP180;40640;48.130;11.356;2022-08-25T10:40:09;95666.00;;;31.70
54746;BMP180;40640;48.130;11.356;2022-08-25T10:44:22;95662.00;;;31.90
54746;BMP180;40640;48.130;11.356;2022-08-25T10:48:51;95665.00;;;31.60
54746;BMP180;40640;48.130;11.356;2022-08-25T10:53:14;95657.00;;;31.50
54746;BMP180;40640;48.130;11.356;2022-08-25T10:57:24;95654.00;;;32.80
54746;BMP180;40640;48.130;11.356;2022-08-25T11:01:37;95654.00;;;33.10
54746;BMP180;40640;48.130;11.356;2022-08-25T11:05:48;95650.00;;;32.40
54746;BMP180;40640;48.130;11.356;2022-08-25T11:09:58;95641.00;;;32.40
54746;BMP180;40640;48.130;11.356;2022-08-25T11:14:08;95636.00;;;30.30
54746;BMP180;40640;48.130;11.356;2022-08-25T11:18:13;95641.00;;;31.50
54746;BMP180;40640;48.130;11.356;2022-08-25T11:22:21;95644.00;;;32.00
54746;BMP180;40640;48.130;11.356;2022-08-25T11:26:29;95658.00;;;32.30
54746;BMP180;40640;48.130;11.356;2022-08-25T11:30:39;95639.00;;;32.10
54746;BMP180;40640;48.130;11.356;2022-08-25T11:34:42;95623.00;;;34.40
54746;BMP180;40640;48.130;11.356;2022-08-25T11:38:50;95614.00;;;33.80
54746;BMP180;40640;48.130;11.356;2022-08-25T11:43:00;95621.00;;;33.30
54746;BMP180;40640;48.130;11.356;2022-08-25T11:47:32;95617.00;;;34.60
54746;BMP180;40640;48.130;11.356;2022-08-25T11:51:41;95623.00;;;37.10
54746;BMP180;40640;48.130;11.356;2022-08-25T11:55:49;95607.00;;;41.30
54746;BMP180;40640;48.130;11.356;2022-08-25T12:00:04;95620.00;;;39.90
54746;BMP180;40640;48.130;11.356;2022-08-25T12:04:16;95608.00;;;40.20
54746;BMP180;40640;48.130;11.356;2022-08-25T12:08:48;95611.00;;;39.00
54746;BMP180;40640;48.130;11.356;2022-08-25T12:17:23;95584.00;;;50.00
54746;BMP180;40640;48.130;11.356;2022-08-25T12:21:32;95590.00;;;48.60
54746;BMP180;40640;48.130;11.356;2022-08-25T12:25:59;95613.00;;;42.30
54746;BMP180;40640;48.130;11.356;2022-08-25T12:30:12;95619.00;;;42.30
54746;BMP180;40640;48.130;11.356;2022-08-25T12:34:39;95603.00;;;45.60
54746;BMP180;40640;48.130;11.356;2022-08-25T12:38:47;95585.00;;;49.40
54746;BMP180;40640;48.130;11.356;2022-08-25T12:43:01;95599.00;;;49.10
54746;BMP180;40640;48.130;11.356;2022-08-25T12:47:11;95582.00;;;51.60
54746;BMP180;40640;48.130;11.356;2022-08-25T12:51:16;95610.00;;;50.30
54746;BMP180;40640;48.130;11.356;2022-08-25T12:55:25;95602.00;;;46.40
54746;BMP180;40640;48.130;11.356;2022-08-25T12:59:35;95631.00;;;43.90
54746;BMP180;40640;48.130;11.356;2022-08-25T13:03:58;95624.00;;;38.80
54746;BMP180;40640;48.130;11.356;2022-08-25T13:08:26;95608.00;;;42.70
54746;BMP180;40640;48.130;11.356;2022-08-25T13:12:39;95649.00;;;39.10
54746;BMP180;40640;48.130;11.356;2022-08-25T13:16:52;95636.00;;;39.50
54746;BMP180;40640;48.130;11.356;2022-08-25T13:21:03;95617.00;;;36.90
54746;BMP180;40640;48.130;11.356;2022-08-25T13:25:14;95631.00;;;38.50
54746;BMP180;40640;48.130;11.356;2022-08-25T13:29:26;95637.00;;;38.70
54746;BMP180;40640;48.130;11.356;2022-08-25T13:33:36;95642.00;;;34.00
54746;BMP180;40640;48.130;11.356;2022-08-25T13:37:40;95620.00;;;34.70
54746;BMP180;40640;48.130;11.356;2022-08-25T13:41:45;95604.00;;;40.20
54746;BMP180;40640;48.130;11.356;2022-08-25T13:45:57;95605.00;;;40.30
54746;BMP180;40640;48.130;11.356;2022-08-25T13:50:16;95597.00;;;40.70
54746;BMP180;40640;48.130;11.356;2022-08-25T13:54:24;95608.00;;;37.90
54746;BMP180;40640;48.130;11.356;2022-08-25T13:58:28;95602.00;;;37.60
54746;BMP180;40640;48.130;11.356;2022-08-25T14:02:48;95597.00;;;37.90
54746;BMP180;40640;48.130;11.356;2022-08-25T14:07:12;95594.00;;;36.50
54746;BMP180;40640;48.130;11.356;2022-08-25T14:11:30;95605.00;;;35.20
54746;BMP180;40640;48.130;11.356;2022-08-25T14:15:35;95604.00;;;36.30
54746;BMP180;40640;48.130;11.356;2022-08-25T14:19:44;95602.00;;;35.10
54746;BMP180;40640;48.130;11.356;2022-08-25T14:23:48;95603.00;;;33.70
54746;BMP180;40640;48.130;11.356;2022-08-25T14:27:54;95596.00;;;32.80
54746;BMP180;40640;48.130;11.356;2022-08-25T14:32:15;95596.00;;;32.30
54746;BMP180;40640;48.130;11.356;2022-08-25T14:36:19;95599.00;;;33.30
54746;BMP180;40640;48.130;11.356;2022-08-25T14:40:22;95607.00;;;32.30
54746;BMP180;40640;48.130;11.356;2022-08-25T14:44:25;95604.00;;;31.20
54746;BMP180;40640;48.130;11.356;2022-08-25T14:48:31;95599.00;;;31.90
54746;BMP180;40640;48.130;11.356;2022-08-25T14:52:37;95598.00;;;30.70
54746;BMP180;40640;48.130;11.356;2022-08-25T14:56:40;95593.00;;;30.70
54746;BMP180;40640;48.130;11.356;2022-08-25T15:00:44;95584.00;;;30.80
54746;BMP180;40640;48.130;11.356;2022-08-25T15:04:50;95583.00;;;31.20
54746;BMP180;40640;48.130;11.356;2022-08-25T15:08:55;95579.00;;;31.90
54746;BMP180;40640;48.130;11.356;2022-08-25T15:13:12;95585.00;;;31.50
54746;BMP180;40640;48.130;11.356;2022-08-25T15:17:16;95577.00;;;30.70
54746;BMP180;40640;48.130;11.356;2022-08-25T15:21:19;95574.00;;;31.20
54746;BMP180;40640;48.130;11.356;2022-08-25T15:25:23;95567.00;;;31.20
54746;BMP180;40640;48.130;11.356;2022-08-25T15:29:27;95576.00;;;31.70
54746;BMP180;40640;48.130;11.356;2022-08-25T15:33:31;95577.00;;;31.20
54746;BMP180;40640;48.130;11.356;2022-08-25T15:37:33;95570.00;;;31.30
54746;BMP180;40640;48.130;11.356;2022-08-25T15:41:39;95559.00;;;30.90
54746;BMP180;40640;48.130;11.356;2022-08-25T15:45:43;95561.00;;;30.40
54746;BMP180;40640;48.130;11.356;2022-08-25T15:49:47;95559.00;;;30.90
54746;BMP180;40640;48.130;11.356;2022-08-25T15:53:50;95557.00;;;30.70
54746;BMP180;40640;48.130;11.356;2022-08-25T15:57:55;95547.00;;;30.40
54746;BMP180;40640;48.130;11.356;2022-08-25T16:01:58;95551.00;;;30.70
54746;BMP180;40640;48.130;11.356;2022-08-25T16:06:02;95555.00;;;29.80
54746;BMP180;40640;48.130;11.356;2022-08-25T16:10:06;95553.00;;;29.10
54746;BMP180;40640;48.130;11.356;2022-08-25T16:14:10;95559.00;;;28.50
54746;BMP180;40640;48.130;11.356;2022-08-25T16:18:15;95563.00;;;28.40
54746;BMP180;40640;48.130;11.356;2022-08-25T16:22:18;95553.00;;;28.60
54746;BMP180;40640;48.130;11.356;2022-08-25T16:26:21;95544.00;;;29.10
54746;BMP180;40640;48.130;11.356;2022-08-25T16:30:26;95544.00;;;29.40
54746;BMP180;40640;48.130;11.356;2022-08-25T16:34:29;95546.00;;;28.70
54746;BMP180;40640;48.130;11.356;2022-08-25T16:38:35;95551.00;;;28.30
54746;BMP180;40640;48.130;11.356;2022-08-25T16:42:38;95552.00;;;28.50
54746;BMP180;40640;48.130;11.356;2022-08-25T16:46:43;95552.00;;;28.90
54746;BMP180;40640;48.130;11.356;2022-08-25T16:50:47;95549.00;;;28.80
54746;BMP180;40640;48.130;11.356;2022-08-25T16:54:50;95544.00;;;28.70
54746;BMP180;40640;48.130;11.356;2022-08-25T16:59:11;95549.00;;;28.40
54746;BMP180;40640;48.130;11.356;2022-08-25T17:03:16;95543.00;;;28.40
54746;BMP180;40640;48.130;11.356;2022-08-25T17:07:19;95538.00;;;28.40
54746;BMP180;40640;48.130;11.356;2022-08-25T17:11:26;95543.00;;;28.40
54746;BMP180;40640;48.130;11.356;2022-08-25T17:15:29;95535.00;;;28.30
54746;BMP180;40640;48.130;11.356;2022-08-25T17:19:34;95541.00;;;28.20
54746;BMP180;40640;48.130;11.356;2022-08-25T17:23:37;95543.00;;;27.90
54746;BMP180;40640;48.130;11.356;2022-08-25T17:27:41;95536.00;;;27.70
54746;BMP180;40640;48.130;11.356;2022-08-25T17:31:44;95537.00;;;27.60
54746;BMP180;40640;48.130;11.356;2022-08-25T17:35:52;95539.00;;;27.30
54746;BMP180;40640;48.130;11.356;2022-08-25T17:39:55;95540.00;;;27.00
54746;BMP180;40640;48.130;11.356;2022-08-25T17:44:04;95544.00;;;26.80
54746;BMP180;40640;48.130;11.356;2022-08-25T17:48:07;95553.00;;;26.50
54746;BMP180;40640;48.130;11.356;2022-08-25T17:52:12;95546.00;;;26.20
54746;BMP180;40640;48.130;11.356;2022-08-25T17:56:18;95549.00;;;26.10
54746;BMP180;40640;48.130;11.356;2022-08-25T18:00:22;95553.00;;;25.90
54746;BMP180;40640;48.130;11.356;2022-08-25T18:04:25;95551.00;;;26.00
54746;BMP180;40640;48.130;11.356;2022-08-25T18:08:31;95552.00;;;25.80
54746;BMP180;40640;48.130;11.356;2022-08-25T18:12:36;95558.00;;;25.70
54746;BMP180;40640;48.130;11.356;2022-08-25T18:16:39;95561.00;;;25.60
54746;BMP180;40640;48.130;11.356;2022-08-25T18:20:44;95560.00;;;25.50
54746;BMP180;40640;48.130;11.356;2022-08-25T18:24:49;95569.00;;;25.60
54746;BMP180;40640;48.130;11.356;2022-08-25T18:28:52;95566.00;;;25.40
54746;BMP180;40640;48.130;11.356;2022-08-25T18:32:55;95568.00;;;25.50
54746;BMP180;40640;48.130;11.356;2022-08-25T18:36:59;95572.00;;;25.40
54746;BMP180;40640;48.130;11.356;2022-08-25T18:41:26;95569.00;;;25.40
54746;BMP180;40640;48.130;11.356;2022-08-25T18:45:32;95567.00;;;25.30
54746;BMP180;40640;48.130;11.356;2022-08-25T18:49:35;95562.00;;;25.30
54746;BMP180;40640;48.130;11.356;2022-08-25T18:53:38;95570.00;;;25.20
54746;BMP180;40640;48.130;11.356;2022-08-25T18:57:52;95569.00;;;25.20
54746;BMP180;40640;48.130;11.356;2022-08-25T19:01:58;95567.00;;;25.20
54746;BMP180;40640;48.130;11.356;2022-08-25T19:06:03;95568.00;;;25.10
54746;BMP180;40640;48.130;11.356;2022-08-25T19:10:07;95564.00;;;24.90
54746;BMP180;40640;48.130;11.356;2022-08-25T19:14:11;95564.00;;;24.90
54746;BMP180;40640;48.130;11.356;2022-08-25T19:18:14;95574.00;;;24.80
54746;BMP180;40640;48.130;11.356;2022-08-25T19:22:17;95572.00;;;24.80
54746;BMP180;40640;48.130;11.356;2022-08-25T19:26:42;95572.00;;;24.70
54746;BMP180;40640;48.130;11.356;2022-08-25T19:30:46;95579.00;;;24.60
54746;BMP180;40640;48.130;11.356;2022-08-25T19:34:51;95572.00;;;24.40
54746;BMP180;40640;48.130;11.356;2022-08-25T19:38:57;95572.00;;;24.30
54746;BMP180;40640;48.130;11.356;2022-08-25T19:43:00;95575.00;;;24.20
54746;BMP180;40640;48.130;11.356;2022-08-25T19:47:05;95578.00;;;24.20
54746;BMP180;40640;48.130;11.356;2022-08-25T19:51:13;95581.00;;;24.00
54746;BMP180;40640;48.130;11.356;2022-08-25T19:55:20;95575.00;;;24.00
54746;BMP180;40640;48.130;11.356;2022-08-25T19:59:27;95582.00;;;23.90
54746;BMP180;40640;48.130;11.356;2022-08-25T20:03:44;95578.00;;;23.80
54746;BMP180;40640;48.130;11.356;2022-08-25T20:07:47;95573.00;;;23.70
54746;BMP180;40640;48.130;11.356;2022-08-25T20:11:51;95577.00;;;23.60
54746;BMP180;40640;48.130;11.356;2022-08-25T20:15:53;95578.00;;;23.60
54746;BMP180;40640;48.130;11.356;2022-08-25T20:20:06;95578.00;;;23.60
54746;BMP180;40640;48.130;11.356;2022-08-25T20:24:11;95576.00;;;23.70
54746;BMP180;40640;48.130;11.356;2022-08-25T20:28:31;95583.00;;;23.80
54746;BMP180;40640;48.130;11.356;2022-08-25T20:32:34;95588.00;;;23.80
54746;BMP180;40640;48.130;11.356;2022-08-25T20:36:41;95583.00;;;23.70
54746;BMP180;40640;48.130;11.356;2022-08-25T20:40:50;95573.00;;;23.80
54746;BMP180;40640;48.130;11.356;2022-08-25T20:44:53;95579.00;;;23.80
54746;BMP180;40640;48.130;11.356;2022-08-25T20:48:56;95579.00;;;23.70
54746;BMP180;40640;48.130;11.356;2022-08-25T20:53:03;95578.00;;;23.60
54746;BMP180;40640;48.130;11.356;2022-08-25T20:57:13;95582.00;;;23.60
54746;BMP180;40640;48.130;11.356;2022-08-25T21:01:19;95586.00;;;23.50
54746;BMP180;40640;48.130;11.356;2022-08-25T21:05:23;95583.00;;;23.40
54746;BMP180;40640;48.130;11.356;2022-08-25T21:09:28;95580.00;;;23.30
54746;BMP180;40640;48.130;11.356;2022-08-25T21:13:31;95574.00;;;23.20
54746;BMP180;40640;48.130;11.356;2022-08-25T21:17:35;95576.00;;;23.10
54746;BMP180;40640;48.130;11.356;2022-08-25T21:21:38;95580.00;;;23.10
54746;BMP180;40640;48.130;11.356;2022-08-25T21:25:42;95578.00;;;23.00
54746;BMP180;40640;48.130;11.356;2022-08-25T21:29:45;95582.00;;;23.00
54746;BMP180;40640;48.130;11.356;2022-08-25T21:33:56;95577.00;;;22.90
54746;BMP180;40640;48.130;11.356;2022-08-25T21:38:01;95574.00;;;22.90
54746;BMP180;40640;48.130;11.356;2022-08-25T21:42:05;95572.00;;;22.70
54746;BMP180;40640;48.130;11.356;2022-08-25T21:46:10;95568.00;;;22.80
54746;BMP180;40640;48.130;11.356;2022-08-25T21:50:13;95566.00;;;22.70
54746;BMP180;40640;48.130;11.356;2022-08-25T21:54:17;95565.00;;;22.70
54746;BMP180;40640;48.130;11.356;2022-08-25T21:58:25;95567.00;;;22.60
54746;BMP180;40640;48.130;11.356;2022-08-25T22:02:29;95562.00;;;22.60
54746;BMP180;40640;48.130;11.356;2022-08-25T22:06:33;95562.00;;;22.50
54746;BMP180;40640;48.130;11.356;2022-08-25T22:10:41;95560.00;;;22.50
54746;BMP180;40640;48.130;11.356;2022-08-25T22:14:46;95560.00;;;22.50
54746;BMP180;40640;48.130;11.356;2022-08-25T22:18:49;95558.00;;;22.40
54746;BMP180;40640;48.130;11.356;2022-08-25T22:22:52;95554.00;;;22.40
54746;BMP180;40640;48.130;11.356;2022-08-25T22:26:55;95553.00;;;22.20
54746;BMP180;40640;48.130;11.356;2022-08-25T22:31:02;95548.00;;;22.10
54746;BMP180;40640;48.130;11.356;2022-08-25T22:35:08;95541.00;;;21.90
54746;BMP180;40640;48.130;11.356;2022-08-25T22:39:13;95548.00;;;22.00
54746;BMP180;40640;48.130;11.356;2022-08-25T22:43:16;95548.00;;;21.90
54746;BMP180;40640;48.130;11.356;2022-08-25T22:47:20;95541.00;;;22.00
54746;BMP180;40640;48.130;11.356;2022-08-25T22:51:24;95531.00;;;21.90
54746;BMP180;40640;48.130;11.356;2022-08-25T22:55:28;95534.00;;;22.00
54746;BMP180;40640;48.130;11.356;2022-08-25T22:59:31;95531.00;;;22.00
54746;BMP180;40640;48.130;11.356;2022-08-25T23:03:35;95535.00;;;21.90
54746;BMP180;40640;48.130;11.356;2022-08-25T23:07:44;95536.00;;;21.90
54746;BMP180;40640;48.130;11.356;2022-08-25T23:11:47;95531.00;;;21.80
54746;BMP180;40640;48.130;11.356;2022-08-25T23:15:51;95527.00;;;21.80
54746;BMP180;40640;48.130;11.356;2022-08-25T23:19:56;95530.00;;;21.70
54746;BMP180;40640;48.130;11.356;2022-08-25T23:23:59;95531.00;;;21.60